sensor_id;sensor_type;location;lat;lon;timestamp;P1;durP1;ratioP1;P2;durP2;ratioP2
3121;SDS011;1571;52.524;14.104;2022-10-15T00:01:39;22.17;;;16.73;;
3121;SDS011;1571;52.524;14.104;2022-10-15T00:04:07;22.20;;;18.87;;
3121;SDS011;1571;52.524;14.104;2022-10-15T00:06:35;21.50;;;17.97;;
3121;SDS011;1571;52.524;14.104;2022-10-15T00:09:04;24.27;;;17.47;;
3121;SDS011;1571;52.524;14.104;2022-10-15T00:11:32;24.50;;;18.00;;
3121;SDS011;1571;52.524;14.104;2022-10-15T00:14:01;21.90;;;17.60;;
3121;SDS011;1571;52.524;14.104;2022-10-15T00:16:29;22.30;;;18.67;;
3121;SDS011;1571;52.524;14.104;2022-10-15T00:18:59;23.03;;;17.80;;
3121;SDS011;1571;52.524;14.104;2022-10-15T00:21:27;23.80;;;18.53;;
3121;SDS011;1571;52.524;14.104;2022-10-15T00:23:55;24.03;;;16.57;;
3121;SDS011;1571;52.524;14.104;2022-10-15T00:26:24;22.50;;;18.70;;
3121;SDS011;1571;52.524;14.104;2022-10-15T00:28:55;24.87;;;18.33;;
3121;SDS011;1571;52.524;14.104;2022-10-15T00:31:25;25.30;;;17.00;;
3121;SDS011;1571;52.524;14.104;2022-10-15T00:33:55;19.70;;;17.60;;
3121;SDS011;1571;52.524;14.104;2022-10-15T00:36:27;25.90;;;18.60;;
3121;SDS011;1571;52.524;14.104;2022-10-15T00:38:57;25.10;;;18.57;;
3121;SDS011;1571;52.524;14.104;2022-10-15T00:41:27;25.20;;;17.57;;
3121;SDS011;1571;52.524;14.104;2022-10-15T00:43:57;26.13;;;17.90;;
3121;SDS011;1571;52.524;14.104;2022-10-15T00:46:28;24.00;;;18.40;;
3121;SDS011;1571;52.524;14.104;2022-10-15T00:49:00;25.03;;;18.90;;
3121;SDS011;1571;52.524;14.104;2022-10-15T00:51:40;25.53;;;18.37;;
3121;SDS011;1571;52.524;14.104;2022-10-15T00:54:12;27.47;;;19.97;;
3121;SDS011;1571;52.524;14.104;2022-10-15T00:56:42;23.37;;;19.43;;
3121;SDS011;1571;52.524;14.104;2022-10-15T00:59:11;27.70;;;20.60;;
3121;SDS011;1571;52.524;14.104;2022-10-15T01:01:42;24.73;;;18.50;;
3121;SDS011;1571;52.524;14.104;2022-10-15T01:04:11;26.20;;;19.97;;
3121;SDS011;1571;52.524;14.104;2022-10-15T01:06:41;27.60;;;19.43;;
3121;SDS011;1571;52.524;14.104;2022-10-15T01:09:09;24.07;;;20.33;;
3121;SDS011;1571;52.524;14.104;2022-10-15T01:11:39;24.93;;;20.37;;
3121;SDS011;1571;52.524;14.104;2022-10-15T01:14:25;24.40;;;19.77;;
3121;SDS011;1571;52.524;14.104;2022-10-15T01:17:02;23.67;;;19.60;;
3121;SDS011;1571;52.524;14.104;2022-10-15T01:19:44;26.93;;;19.83;;
3121;SDS011;1571;52.524;14.104;2022-10-15T01:22:42;26.50;;;20.97;;
3121;SDS011;1571;52.524;14.104;2022-10-15T01:25:22;26.17;;;20.37;;
3121;SDS011;1571;52.524;14.104;2022-10-15T01:28:07;28.60;;;20.43;;
3121;SDS011;1571;52.524;14.104;2022-10-15T01:30:46;26.93;;;20.00;;
3121;SDS011;1571;52.524;14.104;2022-10-15T01:33:23;24.07;;;19.57;;
3121;SDS011;1571;52.524;14.104;2022-10-15T01:35:57;27.90;;;19.97;;
3121;SDS011;1571;52.524;14.104;2022-10-15T01:38:35;26.80;;;20.60;;
3121;SDS011;1571;52.524;14.104;2022-10-15T01:41:13;26.53;;;18.97;;
3121;SDS011;1571;52.524;14.104;2022-10-15T01:43:46;29.93;;;22.10;;
3121;SDS011;1571;52.524;14.104;2022-10-15T01:46:39;28.27;;;19.50;;
3121;SDS011;1571;52.524;14.104;2022-10-15T01:49:17;26.97;;;19.90;;
3121;SDS011;1571;52.524;14.104;2022-10-15T01:51:50;25.60;;;20.10;;
3121;SDS011;1571;52.524;14.104;2022-10-15T01:54:22;26.17;;;19.27;;
3121;SDS011;1571;52.524;14.104;2022-10-15T01:56:52;30.33;;;21.70;;
3121;SDS011;1571;52.524;14.104;2022-10-15T01:59:22;24.47;;;18.30;;
3121;SDS011;1571;52.524;14.104;2022-10-15T02:01:55;26.47;;;20.67;;
3121;SDS011;1571;52.524;14.104;2022-10-15T02:04:25;24.37;;;19.33;;
3121;SDS011;1571;52.524;14.104;2022-10-15T02:06:56;29.77;;;21.60;;
3121;SDS011;1571;52.524;14.104;2022-10-15T02:09:32;26.17;;;20.90;;
3121;SDS011;1571;52.524;14.104;2022-10-15T02:12:17;28.17;;;21.13;;
3121;SDS011;1571;52.524;14.104;2022-10-15T02:14:59;26.90;;;20.80;;
3121;SDS011;1571;52.524;14.104;2022-10-15T02:17:36;34.90;;;21.90;;
3121;SDS011;1571;52.524;14.104;2022-10-15T02:20:10;34.40;;;21.70;;
3121;SDS011;1571;52.524;14.104;2022-10-15T02:22:45;28.67;;;20.60;;
3121;SDS011;1571;52.524;14.104;2022-10-15T02:25:17;30.73;;;21.07;;
3121;SDS011;1571;52.524;14.104;2022-10-15T02:27:49;29.90;;;21.60;;
3121;SDS011;1571;52.524;14.104;2022-10-15T02:30:20;29.20;;;21.13;;
3121;SDS011;1571;52.524;14.104;2022-10-15T02:32:51;31.20;;;22.60;;
3121;SDS011;1571;52.524;14.104;2022-10-15T02:35:23;24.50;;;18.73;;
3121;SDS011;1571;52.524;14.104;2022-10-15T02:37:54;28.47;;;20.27;;
3121;SDS011;1571;52.524;14.104;2022-10-15T02:40:26;29.30;;;20.20;;
3121;SDS011;1571;52.524;14.104;2022-10-15T02:43:02;28.83;;;19.27;;
3121;SDS011;1571;52.524;14.104;2022-10-15T02:45:34;26.07;;;19.33;;
3121;SDS011;1571;52.524;14.104;2022-10-15T02:48:04;26.80;;;20.07;;
3121;SDS011;1571;52.524;14.104;2022-10-15T02:50:34;28.93;;;20.10;;
3121;SDS011;1571;52.524;14.104;2022-10-15T02:53:02;25.20;;;20.53;;
3121;SDS011;1571;52.524;14.104;2022-10-15T02:55:31;26.17;;;19.30;;
3121;SDS011;1571;52.524;14.104;2022-10-15T02:57:59;25.17;;;20.47;;
3121;SDS011;1571;52.524;14.104;2022-10-15T03:00:27;30.80;;;20.40;;
3121;SDS011;1571;52.524;14.104;2022-10-15T03:02:56;28.23;;;19.53;;
3121;SDS011;1571;52.524;14.104;2022-10-15T03:05:25;36.93;;;20.40;;
3121;SDS011;1571;52.524;14.104;2022-10-15T03:07:58;31.93;;;19.90;;
3121;SDS011;1571;52.524;14.104;2022-10-15T03:10:28;24.57;;;19.60;;
3121;SDS011;1571;52.524;14.104;2022-10-15T03:13:00;28.30;;;21.97;;
3121;SDS011;1571;52.524;14.104;2022-10-15T03:15:30;27.83;;;20.03;;
3121;SDS011;1571;52.524;14.104;2022-10-15T03:17:58;29.20;;;18.63;;
3121;SDS011;1571;52.524;14.104;2022-10-15T03:20:28;24.23;;;17.63;;
3121;SDS011;1571;52.524;14.104;2022-10-15T03:22:56;28.57;;;20.23;;
3121;SDS011;1571;52.524;14.104;2022-10-15T03:25:24;27.50;;;18.90;;
3121;SDS011;1571;52.524;14.104;2022-10-15T03:27:59;25.93;;;21.07;;
3121;SDS011;1571;52.524;14.104;2022-10-15T03:30:35;24.10;;;17.50;;
3121;SDS011;1571;52.524;14.104;2022-10-15T03:33:05;25.30;;;19.70;;
3121;SDS011;1571;52.524;14.104;2022-10-15T03:35:35;23.20;;;17.07;;
3121;SDS011;1571;52.524;14.104;2022-10-15T03:38:04;22.97;;;18.27;;
3121;SDS011;1571;52.524;14.104;2022-10-15T03:40:34;25.20;;;18.97;;
3121;SDS011;1571;52.524;14.104;2022-10-15T03:43:28;23.57;;;17.87;;
3121;SDS011;1571;52.524;14.104;2022-10-15T03:46:00;34.80;;;20.53;;
3121;SDS011;1571;52.524;14.104;2022-10-15T03:48:30;28.30;;;18.73;;
3121;SDS011;1571;52.524;14.104;2022-10-15T03:50:59;26.30;;;18.30;;
3121;SDS011;1571;52.524;14.104;2022-10-15T03:53:28;22.67;;;17.40;;
3121;SDS011;1571;52.524;14.104;2022-10-15T03:56:01;25.67;;;18.10;;
3121;SDS011;1571;52.524;14.104;2022-10-15T03:58:30;24.80;;;17.67;;
3121;SDS011;1571;52.524;14.104;2022-10-15T04:01:01;22.10;;;17.77;;
3121;SDS011;1571;52.524;14.104;2022-10-15T04:03:37;25.33;;;17.17;;
3121;SDS011;1571;52.524;14.104;2022-10-15T04:06:06;25.23;;;18.30;;
3121;SDS011;1571;52.524;14.104;2022-10-15T04:08:36;35.70;;;18.80;;
3121;SDS011;1571;52.524;14.104;2022-10-15T04:11:19;24.17;;;17.97;;
3121;SDS011;1571;52.524;14.104;2022-10-15T04:13:58;22.47;;;17.77;;
3121;SDS011;1571;52.524;14.104;2022-10-15T04:16:27;27.50;;;17.83;;
3121;SDS011;1571;52.524;14.104;2022-10-15T04:18:55;23.60;;;17.40;;
3121;SDS011;1571;52.524;14.104;2022-10-15T04:21:26;22.37;;;16.70;;
3121;SDS011;1571;52.524;14.104;2022-10-15T04:23:59;25.10;;;17.10;;
3121;SDS011;1571;52.524;14.104;2022-10-15T04:26:36;23.63;;;17.13;;
3121;SDS011;1571;52.524;14.104;2022-10-15T04:29:04;25.13;;;18.17;;
3121;SDS011;1571;52.524;14.104;2022-10-15T04:31:33;24.93;;;17.50;;
3121;SDS011;1571;52.524;14.104;2022-10-15T04:34:01;24.93;;;18.13;;
3121;SDS011;1571;52.524;14.104;2022-10-15T04:39:10;26.60;;;18.73;;
3121;SDS011;1571;52.524;14.104;2022-10-15T04:41:42;25.47;;;19.27;;
3121;SDS011;1571;52.524;14.104;2022-10-15T04:44:13;22.60;;;17.60;;
3121;SDS011;1571;52.524;14.104;2022-10-15T04:46:48;24.73;;;17.40;;
3121;SDS011;1571;52.524;14.104;2022-10-15T04:49:34;29.30;;;17.60;;
3121;SDS011;1571;52.524;14.104;2022-10-15T04:52:10;19.57;;;16.60;;
3121;SDS011;1571;52.524;14.104;2022-10-15T04:54:45;20.50;;;16.00;;
3121;SDS011;1571;52.524;14.104;2022-10-15T04:57:13;23.13;;;16.77;;
3121;SDS011;1571;52.524;14.104;2022-10-15T04:59:42;20.93;;;17.27;;
3121;SDS011;1571;52.524;14.104;2022-10-15T05:02:21;24.70;;;17.70;;
3121;SDS011;1571;52.524;14.104;2022-10-15T05:04:55;24.83;;;16.67;;
3121;SDS011;1571;52.524;14.104;2022-10-15T05:07:25;22.80;;;16.90;;
3121;SDS011;1571;52.524;14.104;2022-10-15T05:09:54;24.43;;;17.60;;
3121;SDS011;1571;52.524;14.104;2022-10-15T05:12:22;22.87;;;17.07;;
3121;SDS011;1571;52.524;14.104;2022-10-15T05:14:52;20.23;;;16.80;;
3121;SDS011;1571;52.524;14.104;2022-10-15T05:17:25;20.37;;;16.27;;
3121;SDS011;1571;52.524;14.104;2022-10-15T05:19:54;25.53;;;16.53;;
3121;SDS011;1571;52.524;14.104;2022-10-15T05:22:27;22.30;;;17.40;;
3121;SDS011;1571;52.524;14.104;2022-10-15T05:24:58;19.93;;;16.97;;
3121;SDS011;1571;52.524;14.104;2022-10-15T05:27:31;29.47;;;17.60;;
3121;SDS011;1571;52.524;14.104;2022-10-15T05:30:01;22.20;;;15.37;;
3121;SDS011;1571;52.524;14.104;2022-10-15T05:32:43;21.00;;;18.07;;
3121;SDS011;1571;52.524;14.104;2022-10-15T05:35:16;20.50;;;14.93;;
3121;SDS011;1571;52.524;14.104;2022-10-15T05:37:55;22.70;;;17.73;;
3121;SDS011;1571;52.524;14.104;2022-10-15T05:40:23;19.53;;;15.83;;
3121;SDS011;1571;52.524;14.104;2022-10-15T05:43:04;19.97;;;15.53;;
3121;SDS011;1571;52.524;14.104;2022-10-15T05:45:32;20.63;;;16.30;;
3121;SDS011;1571;52.524;14.104;2022-10-15T05:48:04;21.83;;;16.13;;
3121;SDS011;1571;52.524;14.104;2022-10-15T05:50:33;19.43;;;14.27;;
3121;SDS011;1571;52.524;14.104;2022-10-15T05:53:06;20.07;;;15.90;;
3121;SDS011;1571;52.524;14.104;2022-10-15T05:55:39;23.23;;;14.63;;
3121;SDS011;1571;52.524;14.104;2022-10-15T05:58:07;20.73;;;15.20;;
3121;SDS011;1571;52.524;14.104;2022-10-15T06:00:35;20.13;;;16.20;;
3121;SDS011;1571;52.524;14.104;2022-10-15T06:03:05;21.60;;;16.33;;
3121;SDS011;1571;52.524;14.104;2022-10-15T06:05:33;19.83;;;15.53;;
3121;SDS011;1571;52.524;14.104;2022-10-15T06:08:01;18.80;;;15.97;;
3121;SDS011;1571;52.524;14.104;2022-10-15T06:10:33;17.97;;;15.70;;
3121;SDS011;1571;52.524;14.104;2022-10-15T06:13:02;19.87;;;17.00;;
3121;SDS011;1571;52.524;14.104;2022-10-15T06:15:30;18.40;;;13.00;;
3121;SDS011;1571;52.524;14.104;2022-10-15T06:18:00;18.43;;;14.40;;
3121;SDS011;1571;52.524;14.104;2022-10-15T06:20:28;28.70;;;16.23;;
3121;SDS011;1571;52.524;14.104;2022-10-15T06:22:57;22.03;;;17.40;;
3121;SDS011;1571;52.524;14.104;2022-10-15T06:25:26;17.37;;;15.23;;
3121;SDS011;1571;52.524;14.104;2022-10-15T06:27:57;17.93;;;14.57;;
3121;SDS011;1571;52.524;14.104;2022-10-15T06:30:38;18.80;;;15.50;;
3121;SDS011;1571;52.524;14.104;2022-10-15T06:33:06;18.10;;;14.00;;
3121;SDS011;1571;52.524;14.104;2022-10-15T06:35:34;17.20;;;14.63;;
3121;SDS011;1571;52.524;14.104;2022-10-15T06:38:03;15.63;;;12.93;;
3121;SDS011;1571;52.524;14.104;2022-10-15T06:40:32;20.53;;;14.80;;
3121;SDS011;1571;52.524;14.104;2022-10-15T06:43:05;18.50;;;14.00;;
3121;SDS011;1571;52.524;14.104;2022-10-15T06:45:35;17.97;;;13.93;;
3121;SDS011;1571;52.524;14.104;2022-10-15T06:48:11;13.37;;;11.97;;
3121;SDS011;1571;52.524;14.104;2022-10-15T06:50:39;18.13;;;13.47;;
3121;SDS011;1571;52.524;14.104;2022-10-15T06:53:08;17.00;;;13.87;;
3121;SDS011;1571;52.524;14.104;2022-10-15T06:55:36;17.73;;;14.10;;
3121;SDS011;1571;52.524;14.104;2022-10-15T06:58:06;23.47;;;13.17;;
3121;SDS011;1571;52.524;14.104;2022-10-15T07:00:34;16.13;;;13.80;;
3121;SDS011;1571;52.524;14.104;2022-10-15T07:03:04;16.33;;;13.97;;
3121;SDS011;1571;52.524;14.104;2022-10-15T07:05:33;17.13;;;13.53;;
3121;SDS011;1571;52.524;14.104;2022-10-15T07:08:02;15.67;;;12.87;;
3121;SDS011;1571;52.524;14.104;2022-10-15T07:10:30;17.73;;;13.90;;
3121;SDS011;1571;52.524;14.104;2022-10-15T07:12:59;21.57;;;12.60;;
3121;SDS011;1571;52.524;14.104;2022-10-15T07:15:29;13.93;;;12.47;;
3121;SDS011;1571;52.524;14.104;2022-10-15T07:17:57;17.80;;;13.60;;
3121;SDS011;1571;52.524;14.104;2022-10-15T07:20:28;13.53;;;10.70;;
3121;SDS011;1571;52.524;14.104;2022-10-15T07:22:58;11.73;;;10.53;;
3121;SDS011;1571;52.524;14.104;2022-10-15T07:25:29;11.97;;;10.60;;
3121;SDS011;1571;52.524;14.104;2022-10-15T07:27:58;15.20;;;12.80;;
3121;SDS011;1571;52.524;14.104;2022-10-15T07:30:26;14.73;;;13.23;;
3121;SDS011;1571;52.524;14.104;2022-10-15T07:32:56;14.43;;;10.80;;
3121;SDS011;1571;52.524;14.104;2022-10-15T07:35:25;16.10;;;12.27;;
3121;SDS011;1571;52.524;14.104;2022-10-15T07:37:54;14.70;;;11.00;;
3121;SDS011;1571;52.524;14.104;2022-10-15T07:40:22;12.47;;;11.17;;
3121;SDS011;1571;52.524;14.104;2022-10-15T07:42:51;12.40;;;10.47;;
3121;SDS011;1571;52.524;14.104;2022-10-15T07:45:21;12.77;;;10.77;;
3121;SDS011;1571;52.524;14.104;2022-10-15T07:47:50;15.33;;;11.20;;
3121;SDS011;1571;52.524;14.104;2022-10-15T07:50:20;12.73;;;11.13;;
3121;SDS011;1571;52.524;14.104;2022-10-15T07:52:49;13.97;;;10.57;;
3121;SDS011;1571;52.524;14.104;2022-10-15T07:55:17;13.03;;;11.10;;
3121;SDS011;1571;52.524;14.104;2022-10-15T07:57:46;12.90;;;11.60;;
3121;SDS011;1571;52.524;14.104;2022-10-15T08:00:14;12.77;;;10.37;;
3121;SDS011;1571;52.524;14.104;2022-10-15T08:02:42;12.60;;;11.10;;
3121;SDS011;1571;52.524;14.104;2022-10-15T08:05:12;14.37;;;11.83;;
3121;SDS011;1571;52.524;14.104;2022-10-15T08:07:42;15.00;;;11.37;;
3121;SDS011;1571;52.524;14.104;2022-10-15T08:10:11;14.47;;;11.57;;
3121;SDS011;1571;52.524;14.104;2022-10-15T08:12:40;12.60;;;11.30;;
3121;SDS011;1571;52.524;14.104;2022-10-15T08:15:08;13.30;;;10.80;;
3121;SDS011;1571;52.524;14.104;2022-10-15T08:17:37;12.90;;;9.93;;
3121;SDS011;1571;52.524;14.104;2022-10-15T08:20:05;11.93;;;10.70;;
3121;SDS011;1571;52.524;14.104;2022-10-15T08:22:34;12.47;;;9.57;;
3121;SDS011;1571;52.524;14.104;2022-10-15T08:25:04;14.60;;;9.80;;
3121;SDS011;1571;52.524;14.104;2022-10-15T08:27:33;11.13;;;9.53;;
3121;SDS011;1571;52.524;14.104;2022-10-15T08:30:03;11.00;;;9.50;;
3121;SDS011;1571;52.524;14.104;2022-10-15T08:32:31;9.97;;;8.97;;
3121;SDS011;1571;52.524;14.104;2022-10-15T08:35:00;9.53;;;8.70;;
3121;SDS011;1571;52.524;14.104;2022-10-15T08:37:31;14.37;;;9.97;;
3121;SDS011;1571;52.524;14.104;2022-10-15T08:40:00;9.50;;;8.40;;
3121;SDS011;1571;52.524;14.104;2022-10-15T08:42:31;13.13;;;8.10;;
3121;SDS011;1571;52.524;14.104;2022-10-15T08:45:06;9.60;;;8.23;;
3121;SDS011;1571;52.524;14.104;2022-10-15T08:47:46;8.87;;;8.00;;
3121;SDS011;1571;52.524;14.104;2022-10-15T08:50:22;8.43;;;7.57;;
3121;SDS011;1571;52.524;14.104;2022-10-15T08:53:03;8.20;;;7.50;;
3121;SDS011;1571;52.524;14.104;2022-10-15T08:55:33;9.17;;;8.07;;
3121;SDS011;1571;52.524;14.104;2022-10-15T08:58:09;8.80;;;7.90;;
3121;SDS011;1571;52.524;14.104;2022-10-15T09:00:42;9.43;;;8.07;;
3121;SDS011;1571;52.524;14.104;2022-10-15T09:03:22;8.70;;;7.90;;
3121;SDS011;1571;52.524;14.104;2022-10-15T09:06:00;8.90;;;8.00;;
3121;SDS011;1571;52.524;14.104;2022-10-15T09:08:46;9.50;;;8.70;;
3121;SDS011;1571;52.524;14.104;2022-10-15T09:11:21;12.00;;;8.07;;
3121;SDS011;1571;52.524;14.104;2022-10-15T09:14:06;8.60;;;7.80;;
3121;SDS011;1571;52.524;14.104;2022-10-15T09:16:41;8.63;;;7.83;;
3121;SDS011;1571;52.524;14.104;2022-10-15T09:19:13;8.43;;;7.17;;
3121;SDS011;1571;52.524;14.104;2022-10-15T09:21:44;7.90;;;7.10;;
3121;SDS011;1571;52.524;14.104;2022-10-15T09:24:16;8.20;;;7.50;;
3121;SDS011;1571;52.524;14.104;2022-10-15T09:26:54;8.40;;;7.70;;
3121;SDS011;1571;52.524;14.104;2022-10-15T09:29:32;7.77;;;7.07;;
3121;SDS011;1571;52.524;14.104;2022-10-15T09:32:09;8.80;;;8.00;;
3121;SDS011;1571;52.524;14.104;2022-10-15T09:34:44;8.00;;;7.30;;
3121;SDS011;1571;52.524;14.104;2022-10-15T09:37:19;9.90;;;7.37;;
3121;SDS011;1571;52.524;14.104;2022-10-15T09:40:02;8.23;;;7.53;;
3121;SDS011;1571;52.524;14.104;2022-10-15T09:42:47;7.10;;;6.50;;
3121;SDS011;1571;52.524;14.104;2022-10-15T09:45:19;7.60;;;6.60;;
3121;SDS011;1571;52.524;14.104;2022-10-15T09:47:50;7.17;;;6.53;;
3121;SDS011;1571;52.524;14.104;2022-10-15T09:50:19;6.93;;;6.33;;
3121;SDS011;1571;52.524;14.104;2022-10-15T09:52:52;10.00;;;9.00;;
3121;SDS011;1571;52.524;14.104;2022-10-15T09:55:32;8.83;;;7.77;;
3121;SDS011;1571;52.524;14.104;2022-10-15T09:58:10;7.13;;;6.53;;
3121;SDS011;1571;52.524;14.104;2022-10-15T10:03:45;7.10;;;6.10;;
3121;SDS011;1571;52.524;14.104;2022-10-15T10:06:20;6.03;;;5.50;;
3121;SDS011;1571;52.524;14.104;2022-10-15T10:08:51;5.73;;;5.33;;
3121;SDS011;1571;52.524;14.104;2022-10-15T10:11:22;5.87;;;5.37;;
3121;SDS011;1571;52.524;14.104;2022-10-15T10:13:53;6.50;;;6.00;;
3121;SDS011;1571;52.524;14.104;2022-10-15T10:16:25;7.07;;;6.40;;
3121;SDS011;1571;52.524;14.104;2022-10-15T10:19:03;6.47;;;5.93;;
3121;SDS011;1571;52.524;14.104;2022-10-15T10:21:38;5.67;;;5.20;;
3121;SDS011;1571;52.524;14.104;2022-10-15T10:24:18;5.70;;;5.30;;
3121;SDS011;1571;52.524;14.104;2022-10-15T10:26:49;7.00;;;5.70;;
3121;SDS011;1571;52.524;14.104;2022-10-15T10:29:18;5.17;;;4.67;;
3121;SDS011;1571;52.524;14.104;2022-10-15T10:32:09;6.80;;;6.20;;
3121;SDS011;1571;52.524;14.104;2022-10-15T10:34:39;6.40;;;4.83;;
3121;SDS011;1571;52.524;14.104;2022-10-15T10:37:15;5.27;;;4.87;;
3121;SDS011;1571;52.524;14.104;2022-10-15T10:39:44;11.90;;;5.23;;
3121;SDS011;1571;52.524;14.104;2022-10-15T10:42:23;4.97;;;4.40;;
3121;SDS011;1571;52.524;14.104;2022-10-15T10:44:53;5.70;;;4.67;;
3121;SDS011;1571;52.524;14.104;2022-10-15T10:47:23;9.53;;;4.10;;
3121;SDS011;1571;52.524;14.104;2022-10-15T10:49:57;4.30;;;4.00;;
3121;SDS011;1571;52.524;14.104;2022-10-15T10:52:27;4.63;;;4.23;;
3121;SDS011;1571;52.524;14.104;2022-10-15T10:54:58;4.80;;;4.30;;
3121;SDS011;1571;52.524;14.104;2022-10-15T10:57:39;5.10;;;4.70;;
3121;SDS011;1571;52.524;14.104;2022-10-15T11:00:12;6.23;;;5.23;;
3121;SDS011;1571;52.524;14.104;2022-10-15T11:02:48;8.93;;;5.13;;
3121;SDS011;1571;52.524;14.104;2022-10-15T11:05:21;5.63;;;4.90;;
3121;SDS011;1571;52.524;14.104;2022-10-15T11:07:56;5.60;;;5.10;;
3121;SDS011;1571;52.524;14.104;2022-10-15T11:10:32;5.73;;;5.10;;
3121;SDS011;1571;52.524;14.104;2022-10-15T11:13:11;5.17;;;4.30;;
3121;SDS011;1571;52.524;14.104;2022-10-15T11:15:59;4.90;;;4.50;;
3121;SDS011;1571;52.524;14.104;2022-10-15T11:18:50;5.43;;;5.03;;
3121;SDS011;1571;52.524;14.104;2022-10-15T11:21:42;5.17;;;4.67;;
3121;SDS011;1571;52.524;14.104;2022-10-15T11:24:21;6.10;;;5.50;;
3121;SDS011;1571;52.524;14.104;2022-10-15T11:27:19;7.07;;;5.30;;
3121;SDS011;1571;52.524;14.104;2022-10-15T11:30:04;5.23;;;4.87;;
3121;SDS011;1571;52.524;14.104;2022-10-15T11:32:55;6.70;;;6.10;;
3121;SDS011;1571;52.524;14.104;2022-10-15T11:35:38;8.27;;;6.10;;
3121;SDS011;1571;52.524;14.104;2022-10-15T11:38:22;9.53;;;4.87;;
3121;SDS011;1571;52.524;14.104;2022-10-15T11:41:00;4.97;;;4.33;;
3121;SDS011;1571;52.524;14.104;2022-10-15T11:43:42;8.00;;;6.03;;
3121;SDS011;1571;52.524;14.104;2022-10-15T11:46:24;7.43;;;5.17;;
3121;SDS011;1571;52.524;14.104;2022-10-15T11:49:03;6.07;;;5.57;;
3121;SDS011;1571;52.524;14.104;2022-10-15T11:51:48;9.10;;;5.47;;
3121;SDS011;1571;52.524;14.104;2022-10-15T11:54:35;6.43;;;5.93;;
3121;SDS011;1571;52.524;14.104;2022-10-15T11:57:07;6.73;;;6.13;;
3121;SDS011;1571;52.524;14.104;2022-10-15T11:59:39;6.63;;;5.93;;
3121;SDS011;1571;52.524;14.104;2022-10-15T12:02:15;5.30;;;4.77;;
3121;SDS011;1571;52.524;14.104;2022-10-15T12:04:48;6.17;;;5.70;;
3121;SDS011;1571;52.524;14.104;2022-10-15T12:07:21;5.53;;;4.80;;
3121;SDS011;1571;52.524;14.104;2022-10-15T12:09:54;7.23;;;5.27;;
3121;SDS011;1571;52.524;14.104;2022-10-15T12:12:30;5.17;;;4.87;;
3121;SDS011;1571;52.524;14.104;2022-10-15T12:15:09;5.10;;;4.70;;
3121;SDS011;1571;52.524;14.104;2022-10-15T12:17:49;5.97;;;5.23;;
3121;SDS011;1571;52.524;14.104;2022-10-15T12:20:22;6.00;;;5.40;;
3121;SDS011;1571;52.524;14.104;2022-10-15T12:22:57;6.47;;;5.97;;
3121;SDS011;1571;52.524;14.104;2022-10-15T12:25:41;5.47;;;5.00;;
3121;SDS011;1571;52.524;14.104;2022-10-15T12:28:12;5.20;;;4.80;;
3121;SDS011;1571;52.524;14.104;2022-10-15T12:30:52;6.17;;;5.37;;
3121;SDS011;1571;52.524;14.104;2022-10-15T12:33:23;5.33;;;4.93;;
3121;SDS011;1571;52.524;14.104;2022-10-15T12:35:58;4.20;;;3.90;;
3121;SDS011;1571;52.524;14.104;2022-10-15T12:38:30;5.27;;;4.77;;
3121;SDS011;1571;52.524;14.104;2022-10-15T12:41:02;5.47;;;4.47;;
3121;SDS011;1571;52.524;14.104;2022-10-15T12:43:33;5.60;;;4.30;;
3121;SDS011;1571;52.524;14.104;2022-10-15T12:46:04;5.00;;;4.57;;
3121;SDS011;1571;52.524;14.104;2022-10-15T12:48:38;5.30;;;4.20;;
3121;SDS011;1571;52.524;14.104;2022-10-15T13:02:56;4.87;;;4.37;;
3121;SDS011;1571;52.524;14.104;2022-10-15T13:05:34;4.23;;;3.87;;
3121;SDS011;1571;52.524;14.104;2022-10-15T13:08:04;4.63;;;4.23;;
3121;SDS011;1571;52.524;14.104;2022-10-15T13:10:45;4.20;;;3.80;;
3121;SDS011;1571;52.524;14.104;2022-10-15T13:13:18;4.10;;;3.80;;
3121;SDS011;1571;52.524;14.104;2022-10-15T13:15:51;5.70;;;3.47;;
3121;SDS011;1571;52.524;14.104;2022-10-15T13:18:24;4.00;;;3.40;;
3121;SDS011;1571;52.524;14.104;2022-10-15T13:20:53;4.10;;;3.70;;
3121;SDS011;1571;52.524;14.104;2022-10-15T13:23:24;4.37;;;4.07;;
3121;SDS011;1571;52.524;14.104;2022-10-15T13:26:12;3.90;;;3.60;;
3121;SDS011;1571;52.524;14.104;2022-10-15T13:28:45;3.50;;;3.17;;
3121;SDS011;1571;52.524;14.104;2022-10-15T13:31:15;6.53;;;4.17;;
3121;SDS011;1571;52.524;14.104;2022-10-15T13:33:54;6.43;;;3.20;;
3121;SDS011;1571;52.524;14.104;2022-10-15T13:36:26;3.53;;;3.23;;
3121;SDS011;1571;52.524;14.104;2022-10-15T13:38:58;3.13;;;2.93;;
3121;SDS011;1571;52.524;14.104;2022-10-15T13:41:32;3.40;;;3.20;;
3121;SDS011;1571;52.524;14.104;2022-10-15T13:44:02;3.13;;;2.80;;
3121;SDS011;1571;52.524;14.104;2022-10-15T13:46:32;3.60;;;3.27;;
3121;SDS011;1571;52.524;14.104;2022-10-15T13:49:08;2.90;;;2.70;;
3121;SDS011;1571;52.524;14.104;2022-10-15T13:51:39;3.23;;;3.03;;
3121;SDS011;1571;52.524;14.104;2022-10-15T13:54:10;4.13;;;3.37;;
3121;SDS011;1571;52.524;14.104;2022-10-15T13:56:45;3.77;;;3.00;;
3121;SDS011;1571;52.524;14.104;2022-10-15T13:59:19;3.33;;;3.13;;
3121;SDS011;1571;52.524;14.104;2022-10-15T14:01:50;4.60;;;4.20;;
3121;SDS011;1571;52.524;14.104;2022-10-15T14:04:22;3.97;;;3.67;;
3121;SDS011;1571;52.524;14.104;2022-10-15T14:06:51;4.93;;;4.50;;
3121;SDS011;1571;52.524;14.104;2022-10-15T14:09:24;3.50;;;3.20;;
3121;SDS011;1571;52.524;14.104;2022-10-15T14:11:58;4.37;;;3.97;;
3121;SDS011;1571;52.524;14.104;2022-10-15T14:14:30;4.13;;;3.90;;
3121;SDS011;1571;52.524;14.104;2022-10-15T14:17:01;5.80;;;3.17;;
3121;SDS011;1571;52.524;14.104;2022-10-15T14:19:31;4.90;;;3.27;;
3121;SDS011;1571;52.524;14.104;2022-10-15T14:22:02;3.03;;;2.83;;
3121;SDS011;1571;52.524;14.104;2022-10-15T14:24:31;2.93;;;2.73;;
3121;SDS011;1571;52.524;14.104;2022-10-15T14:27:04;2.80;;;2.60;;
3121;SDS011;1571;52.524;14.104;2022-10-15T14:29:34;3.63;;;3.33;;
3121;SDS011;1571;52.524;14.104;2022-10-15T14:32:19;2.40;;;2.27;;
3121;SDS011;1571;52.524;14.104;2022-10-15T14:34:50;3.47;;;3.07;;
3121;SDS011;1571;52.524;14.104;2022-10-15T14:37:26;5.23;;;3.40;;
3121;SDS011;1571;52.524;14.104;2022-10-15T14:40:07;3.40;;;3.20;;
3121;SDS011;1571;52.524;14.104;2022-10-15T14:42:42;5.93;;;3.37;;
3121;SDS011;1571;52.524;14.104;2022-10-15T14:45:12;4.53;;;4.13;;
3121;SDS011;1571;52.524;14.104;2022-10-15T14:47:47;5.50;;;3.63;;
3121;SDS011;1571;52.524;14.104;2022-10-15T14:50:18;4.60;;;4.20;;
3121;SDS011;1571;52.524;14.104;2022-10-15T14:52:49;6.13;;;3.90;;
3121;SDS011;1571;52.524;14.104;2022-10-15T14:55:25;3.60;;;3.27;;
3121;SDS011;1571;52.524;14.104;2022-10-15T14:58:01;4.10;;;3.90;;
3121;SDS011;1571;52.524;14.104;2022-10-15T15:00:37;3.00;;;2.80;;
3121;SDS011;1571;52.524;14.104;2022-10-15T15:03:10;7.10;;;3.50;;
3121;SDS011;1571;52.524;14.104;2022-10-15T15:05:45;5.40;;;5.00;;
3121;SDS011;1571;52.524;14.104;2022-10-15T15:08:15;4.47;;;4.17;;
3121;SDS011;1571;52.524;14.104;2022-10-15T15:10:43;6.37;;;4.37;;
3121;SDS011;1571;52.524;14.104;2022-10-15T15:13:19;6.07;;;5.57;;
3121;SDS011;1571;52.524;14.104;2022-10-15T15:15:49;5.27;;;4.27;;
3121;SDS011;1571;52.524;14.104;2022-10-15T15:18:18;4.40;;;4.00;;
3121;SDS011;1571;52.524;14.104;2022-10-15T15:20:47;6.33;;;5.70;;
3121;SDS011;1571;52.524;14.104;2022-10-15T15:23:18;7.23;;;6.53;;
3121;SDS011;1571;52.524;14.104;2022-10-15T15:25:47;7.10;;;6.50;;
3121;SDS011;1571;52.524;14.104;2022-10-15T15:28:17;7.07;;;6.03;;
3121;SDS011;1571;52.524;14.104;2022-10-15T15:30:49;8.13;;;7.33;;
3121;SDS011;1571;52.524;14.104;2022-10-15T15:33:23;6.70;;;6.13;;
3121;SDS011;1571;52.524;14.104;2022-10-15T15:35:52;6.77;;;6.17;;
3121;SDS011;1571;52.524;14.104;2022-10-15T15:38:23;6.70;;;6.20;;